SAS4522 CYYC-ENGM
Flight info
| Callsign | SAS4522 |
|---|---|
| Flight time | N/A |
| Altitude | 35000 |
| Route | AVROM MAPUX YMM 58N110W 64N100W 68N090W 71N080W 73N060W 73N040W 71N020W 69N010W 66N000W GIKOR BELGU BELG3L |
| Aircraft | B772/H-SDE2E3FGHIJ5LORVWXY/LB1D1 |
Departure
| Time | N/A |
|---|---|
| Airport | Calgary International Airport (CYYC) |
Arrival
| Time | 2026-05-05 19:41 |
|---|---|
| Airport | Oslo-Gardermoen International Airport (ENGM) |
| Time | Latitude | Longitude | Altitude | Speed | Heading |
|---|---|---|---|---|---|
| 2026-05-05 19:04 | 62.65865 | 7.54459 | 38932 ft | 515 kts | 136° |
| 2026-05-05 19:04 | 62.63382 | 7.60080 | 38929 ft | 515 kts | 136° |
| 2026-05-05 19:04 | 62.58406 | 7.71305 | 38923 ft | 516 kts | 136° |
| 2026-05-05 19:05 | 62.53420 | 7.82495 | 38926 ft | 516 kts | 137° |
| 2026-05-05 19:05 | 62.48416 | 7.93666 | 38915 ft | 517 kts | 137° |
| 2026-05-05 19:06 | 62.43405 | 8.04797 | 38924 ft | 517 kts | 137° |
| 2026-05-05 19:06 | 62.38374 | 8.15915 | 38922 ft | 518 kts | 137° |
| 2026-05-05 19:07 | 62.33332 | 8.27000 | 38916 ft | 518 kts | 137° |
| 2026-05-05 19:07 | 62.28282 | 8.38046 | 38915 ft | 518 kts | 137° |
| 2026-05-05 19:08 | 62.23219 | 8.49066 | 38920 ft | 518 kts | 137° |
| 2026-05-05 19:08 | 62.18156 | 8.60029 | 38921 ft | 517 kts | 137° |
| 2026-05-05 19:09 | 62.13084 | 8.70955 | 38915 ft | 517 kts | 138° |
| 2026-05-05 19:09 | 62.08009 | 8.81833 | 38910 ft | 517 kts | 138° |
| 2026-05-05 19:10 | 62.02925 | 8.92677 | 38925 ft | 516 kts | 138° |
| 2026-05-05 19:10 | 61.97839 | 9.03469 | 38924 ft | 517 kts | 138° |
| 2026-05-05 19:11 | 61.92736 | 9.14245 | 38897 ft | 517 kts | 138° |
| 2026-05-05 19:11 | 61.87660 | 9.24909 | 38914 ft | 517 kts | 139° |
| 2026-05-05 19:12 | 61.82967 | 9.34723 | 38907 ft | 518 kts | 139° |
| 2026-05-05 19:12 | 61.80403 | 9.40066 | 38902 ft | 518 kts | 139° |
| 2026-05-05 19:13 | 61.75265 | 9.50734 | 38904 ft | 518 kts | 139° |
| 2026-05-05 19:13 | 61.70131 | 9.61343 | 38826 ft | 514 kts | 139° |
| 2026-05-05 19:14 | 61.67561 | 9.66632 | 38184 ft | 517 kts | 139° |
| 2026-05-05 19:14 | 61.64999 | 9.71891 | 37585 ft | 514 kts | 139° |
| 2026-05-05 19:14 | 61.62442 | 9.77130 | 36991 ft | 512 kts | 139° |
| 2026-05-05 19:14 | 61.59888 | 9.82349 | 36369 ft | 511 kts | 140° |
| 2026-05-05 19:15 | 61.57338 | 9.87548 | 35762 ft | 511 kts | 140° |
| 2026-05-05 19:15 | 61.54783 | 9.92743 | 35063 ft | 512 kts | 140° |
| 2026-05-05 19:15 | 61.52219 | 9.97942 | 34368 ft | 514 kts | 140° |
| 2026-05-05 19:15 | 61.49645 | 10.03149 | 33567 ft | 516 kts | 141° |
| 2026-05-05 19:16 | 61.47051 | 10.08382 | 32729 ft | 518 kts | 141° |
| 2026-05-05 19:16 | 61.44459 | 10.13604 | 31951 ft | 518 kts | 141° |
| 2026-05-05 19:16 | 61.41857 | 10.18833 | 31204 ft | 518 kts | 142° |
| 2026-05-05 19:16 | 61.39273 | 10.24016 | 30715 ft | 512 kts | 142° |
| 2026-05-05 19:17 | 61.36749 | 10.29069 | 30227 ft | 508 kts | 142° |
| 2026-05-05 19:17 | 61.34207 | 10.34144 | 29658 ft | 504 kts | 142° |
| 2026-05-05 19:17 | 61.31685 | 10.39162 | 29042 ft | 499 kts | 142° |
| 2026-05-05 19:17 | 61.29194 | 10.44111 | 28488 ft | 492 kts | 143° |
| 2026-05-05 19:18 | 61.26735 | 10.48984 | 27957 ft | 486 kts | 143° |
| 2026-05-05 19:18 | 61.24243 | 10.53553 | 27408 ft | 466 kts | 153° |
| 2026-05-05 19:18 | 61.21431 | 10.56413 | 26925 ft | 439 kts | 172° |
| 2026-05-05 19:18 | 61.18503 | 10.57664 | 26339 ft | 422 kts | 184° |
| 2026-05-05 19:19 | 61.15634 | 10.57694 | 25756 ft | 403 kts | 197° |
| 2026-05-05 19:19 | 61.12931 | 10.56684 | 25233 ft | 391 kts | 200° |
| 2026-05-05 19:19 | 61.10270 | 10.55589 | 24686 ft | 389 kts | 200° |
| 2026-05-05 19:19 | 61.07617 | 10.54514 | 24161 ft | 388 kts | 200° |
| 2026-05-05 19:20 | 61.04974 | 10.53469 | 23619 ft | 386 kts | 200° |
| 2026-05-05 19:20 | 61.02337 | 10.52448 | 22994 ft | 385 kts | 199° |
| 2026-05-05 19:20 | 60.99710 | 10.51445 | 22411 ft | 383 kts | 199° |
| 2026-05-05 19:20 | 60.97101 | 10.50459 | 21866 ft | 379 kts | 199° |
| 2026-05-05 19:21 | 60.94521 | 10.49486 | 21349 ft | 375 kts | 199° |
| 2026-05-05 19:21 | 60.91967 | 10.48524 | 20840 ft | 372 kts | 198° |
| 2026-05-05 19:21 | 60.89433 | 10.47570 | 20313 ft | 369 kts | 198° |
| 2026-05-05 19:21 | 60.86912 | 10.46621 | 19805 ft | 367 kts | 198° |
| 2026-05-05 19:22 | 60.84403 | 10.45678 | 19300 ft | 366 kts | 197° |
| 2026-05-05 19:22 | 60.81904 | 10.44740 | 18799 ft | 364 kts | 197° |
| 2026-05-05 19:22 | 60.79422 | 10.43811 | 18373 ft | 361 kts | 196° |
| 2026-05-05 19:22 | 60.76944 | 10.42880 | 17853 ft | 365 kts | 196° |
| 2026-05-05 19:23 | 60.74450 | 10.41940 | 17330 ft | 372 kts | 195° |
| 2026-05-05 19:23 | 60.71866 | 10.40973 | 16804 ft | 373 kts | 195° |
| 2026-05-05 19:23 | 60.69322 | 10.40029 | 16283 ft | 369 kts | 194° |
| 2026-05-05 19:23 | 60.66808 | 10.39097 | 15785 ft | 366 kts | 194° |
| 2026-05-05 19:24 | 60.64346 | 10.38187 | 15288 ft | 363 kts | 194° |
| 2026-05-05 19:24 | 60.61863 | 10.37265 | 14791 ft | 362 kts | 194° |
| 2026-05-05 19:24 | 60.59393 | 10.36351 | 14297 ft | 360 kts | 193° |
| 2026-05-05 19:24 | 60.56902 | 10.35431 | 13802 ft | 358 kts | 193° |
| 2026-05-05 19:25 | 60.54482 | 10.34539 | 13286 ft | 357 kts | 193° |
| 2026-05-05 19:25 | 60.52048 | 10.33642 | 12770 ft | 354 kts | 193° |
| 2026-05-05 19:25 | 60.49635 | 10.32754 | 12316 ft | 350 kts | 192° |
| 2026-05-05 19:25 | 60.47250 | 10.31879 | 12193 ft | 337 kts | 193° |
| 2026-05-05 19:26 | 60.45013 | 10.31061 | 12077 ft | 325 kts | 193° |
| 2026-05-05 19:26 | 60.42822 | 10.30312 | 12002 ft | 314 kts | 190° |
| 2026-05-05 19:26 | 60.40692 | 10.29888 | 11970 ft | 301 kts | 187° |
| 2026-05-05 19:26 | 60.38648 | 10.29588 | 11935 ft | 287 kts | 187° |
| 2026-05-05 19:27 | 60.36685 | 10.29299 | 11913 ft | 281 kts | 187° |
| 2026-05-05 19:27 | 60.34737 | 10.28989 | 11854 ft | 281 kts | 187° |
| 2026-05-05 19:27 | 60.32777 | 10.28661 | 11651 ft | 283 kts | 188° |
| 2026-05-05 19:27 | 60.30822 | 10.28326 | 11337 ft | 281 kts | 188° |
| 2026-05-05 19:28 | 60.28882 | 10.27988 | 11001 ft | 278 kts | 187° |
| 2026-05-05 19:28 | 60.26961 | 10.27661 | 10687 ft | 276 kts | 187° |
| 2026-05-05 19:28 | 60.25054 | 10.27336 | 10382 ft | 274 kts | 187° |
| 2026-05-05 19:28 | 60.23162 | 10.27012 | 10073 ft | 272 kts | 187° |
| 2026-05-05 19:29 | 60.21283 | 10.26690 | 9748 ft | 269 kts | 187° |
| 2026-05-05 19:29 | 60.19424 | 10.26374 | 9414 ft | 267 kts | 187° |
| 2026-05-05 19:29 | 60.17584 | 10.26064 | 9081 ft | 265 kts | 187° |
| 2026-05-05 19:29 | 60.15755 | 10.25752 | 8757 ft | 262 kts | 187° |
| 2026-05-05 19:30 | 60.13957 | 10.25922 | 8401 ft | 261 kts | 164° |
| 2026-05-05 19:30 | 60.12430 | 10.27821 | 8088 ft | 262 kts | 134° |
| 2026-05-05 19:30 | 60.11414 | 10.30806 | 7760 ft | 259 kts | 120° |
| 2026-05-05 19:30 | 60.10528 | 10.33956 | 7459 ft | 259 kts | 120° |
| 2026-05-05 19:31 | 60.09647 | 10.37105 | 7187 ft | 260 kts | 120° |
| 2026-05-05 19:31 | 60.08759 | 10.40280 | 6848 ft | 262 kts | 120° |
| 2026-05-05 19:31 | 60.07867 | 10.43448 | 6553 ft | 261 kts | 120° |
| 2026-05-05 19:31 | 60.06977 | 10.46597 | 6290 ft | 258 kts | 120° |
| 2026-05-05 19:32 | 60.06117 | 10.49642 | 6015 ft | 252 kts | 120° |
| 2026-05-05 19:32 | 60.05256 | 10.52682 | 5708 ft | 251 kts | 120° |
| 2026-05-05 19:32 | 60.04395 | 10.55706 | 5373 ft | 249 kts | 120° |
| 2026-05-05 19:32 | 60.03541 | 10.58695 | 5092 ft | 245 kts | 120° |
| 2026-05-05 19:33 | 60.02719 | 10.61575 | 5041 ft | 233 kts | 120° |
| 2026-05-05 19:33 | 60.01915 | 10.64381 | 5004 ft | 231 kts | 120° |
| 2026-05-05 19:33 | 60.01141 | 10.67095 | 4978 ft | 219 kts | 120° |
| 2026-05-05 19:33 | 60.00404 | 10.69669 | 4970 ft | 212 kts | 120° |
| 2026-05-05 19:34 | 59.99665 | 10.72237 | 4787 ft | 214 kts | 120° |
| 2026-05-05 19:34 | 59.98930 | 10.74788 | 4571 ft | 210 kts | 120° |
| 2026-05-05 19:34 | 59.98204 | 10.77311 | 4367 ft | 208 kts | 120° |
| 2026-05-05 19:35 | 59.97464 | 10.82625 | 4048 ft | 201 kts | 81° |
| 2026-05-05 19:35 | 59.97630 | 10.85431 | 4014 ft | 205 kts | 82° |
| 2026-05-05 19:35 | 59.97776 | 10.88262 | 4041 ft | 204 kts | 82° |
| 2026-05-05 19:35 | 59.97922 | 10.91108 | 4006 ft | 205 kts | 82° |
| 2026-05-05 19:36 | 59.98066 | 10.93877 | 4000 ft | 198 kts | 82° |
| 2026-05-05 19:36 | 59.98211 | 10.96590 | 3987 ft | 194 kts | 78° |
| 2026-05-05 19:36 | 59.98800 | 10.98904 | 3994 ft | 187 kts | 38° |
| 2026-05-05 19:36 | 59.99915 | 11.00073 | 4008 ft | 183 kts | 20° |
| 2026-05-05 19:37 | 60.01101 | 11.01077 | 4006 ft | 187 kts | 19° |
| 2026-05-05 19:37 | 60.02331 | 11.01950 | 3956 ft | 189 kts | 15° |
| 2026-05-05 19:37 | 60.03585 | 11.02713 | 3655 ft | 186 kts | 14° |
| 2026-05-05 19:37 | 60.04808 | 11.03420 | 3414 ft | 181 kts | 13° |
| 2026-05-05 19:38 | 60.06022 | 11.04108 | 3162 ft | 182 kts | 13° |
| 2026-05-05 19:38 | 60.07241 | 11.04815 | 2926 ft | 183 kts | 13° |
| 2026-05-05 19:38 | 60.08438 | 11.05500 | 2649 ft | 172 kts | 12° |
| 2026-05-05 19:38 | 60.09536 | 11.06134 | 2438 ft | 156 kts | 12° |
| 2026-05-05 19:39 | 60.10530 | 11.06710 | 2245 ft | 144 kts | 12° |
| 2026-05-05 19:39 | 60.11475 | 11.07251 | 2053 ft | 141 kts | 12° |
| 2026-05-05 19:39 | 60.12421 | 11.07794 | 1827 ft | 141 kts | 12° |
| 2026-05-05 19:39 | 60.13367 | 11.08340 | 1642 ft | 143 kts | 12° |
| 2026-05-05 19:40 | 60.14330 | 11.08897 | 1392 ft | 143 kts | 13° |
| 2026-05-05 19:40 | 60.15280 | 11.09445 | 1183 ft | 142 kts | 14° |
| 2026-05-05 19:40 | 60.16232 | 11.10008 | 1006 ft | 143 kts | 15° |
| 2026-05-05 19:40 | 60.17164 | 11.10548 | 789 ft | 135 kts | 14° |
| 2026-05-05 19:41 | 60.18059 | 11.11057 | 682 ft | 130 kts | 15° |
| 2026-05-05 19:41 | 60.18801 | 11.11482 | 680 ft | 94 kts | 16° |
| 2026-05-05 19:41 | 60.19332 | 11.11785 | 691 ft | 66 kts | 16° |
| 2026-05-05 19:41 | 60.19632 | 11.11880 | 690 ft | 24 kts | 345° |
| 2026-05-05 19:42 | 60.19723 | 11.11633 | 685 ft | 24 kts | 287° |
| 2026-05-05 19:42 | 60.19784 | 11.11328 | 685 ft | 24 kts | 293° |
| 2026-05-05 19:42 | 60.19830 | 11.11012 | 685 ft | 24 kts | 287° |
| 2026-05-05 19:42 | 60.19876 | 11.10698 | 690 ft | 21 kts | 286° |
| 2026-05-05 19:43 | 60.19837 | 11.10539 | 684 ft | 12 kts | 189° |
| 2026-05-05 19:43 | 60.19763 | 11.10495 | 682 ft | 9 kts | 225° |
| 2026-05-05 19:43 | 60.19764 | 11.10377 | 684 ft | 9 kts | 286° |
| 2026-05-05 19:43 | 60.19772 | 11.10322 | 683 ft | 0 kts | 286° |